createdAt,value
2019-03-23T00:02:12.054Z,7.10
2019-03-23T00:04:40.495Z,7.10
2019-03-23T00:07:08.859Z,7.10
2019-03-23T00:09:37.246Z,7.10
2019-03-23T00:12:05.638Z,7.10
2019-03-23T00:14:34.122Z,7.10
2019-03-23T00:17:02.480Z,7.10
2019-03-23T00:19:30.876Z,7.10
2019-03-23T00:21:59.263Z,7.10
2019-03-23T00:24:27.658Z,7.10
2019-03-23T00:26:56.020Z,7.10
2019-03-23T00:29:24.396Z,7.10
2019-03-23T00:31:52.845Z,7.20
2019-03-23T00:34:21.225Z,7.20
2019-03-23T00:36:49.577Z,7.20
2019-03-23T00:39:17.948Z,7.20
2019-03-23T00:41:46.311Z,7.20
2019-03-23T00:44:14.697Z,7.20
2019-03-23T00:46:43.116Z,7.20
2019-03-23T00:49:11.563Z,7.20
2019-03-23T00:51:39.948Z,7.30
2019-03-23T00:54:08.313Z,7.30
2019-03-23T00:56:36.678Z,7.30
2019-03-23T00:59:05.242Z,7.30
2019-03-23T01:01:33.627Z,7.30
2019-03-23T01:04:02.056Z,7.30
2019-03-23T01:06:30.466Z,7.30
2019-03-23T01:08:58.828Z,7.30
2019-03-23T01:11:27.958Z,7.30
2019-03-23T01:13:56.277Z,7.30
2019-03-23T01:16:24.660Z,7.40
2019-03-23T01:18:53.016Z,7.30
2019-03-23T01:21:21.394Z,7.30
2019-03-23T01:23:49.757Z,7.30
2019-03-23T01:26:18.163Z,7.40
2019-03-23T01:28:46.529Z,7.40
2019-03-23T01:31:14.925Z,7.40
2019-03-23T01:33:43.302Z,7.40
2019-03-23T01:36:11.702Z,7.40
2019-03-23T01:38:40.245Z,7.50
2019-03-23T01:41:08.533Z,7.50
2019-03-23T01:43:36.838Z,7.50
2019-03-23T01:46:05.221Z,7.50
2019-03-23T01:48:33.609Z,7.50
2019-03-23T01:51:01.974Z,7.60
2019-03-23T01:53:30.286Z,7.60
2019-03-23T01:55:58.589Z,7.60
2019-03-23T01:58:27.070Z,7.60
2019-03-23T02:00:55.403Z,7.60
2019-03-23T02:03:23.806Z,7.60
2019-03-23T02:05:52.212Z,7.70
2019-03-23T02:08:21.053Z,7.70
2019-03-23T02:10:49.416Z,7.70
2019-03-23T02:13:17.797Z,7.80
2019-03-23T02:15:46.091Z,7.80
2019-03-23T02:18:14.489Z,7.80
2019-03-23T02:20:42.875Z,7.90
2019-03-23T02:23:11.179Z,7.90
2019-03-23T02:25:39.577Z,7.90
2019-03-23T02:28:07.949Z,7.90
2019-03-23T02:30:36.342Z,7.80
2019-03-23T02:33:04.779Z,7.90
2019-03-23T02:35:33.173Z,7.90
2019-03-23T02:38:01.558Z,7.90
2019-03-23T02:40:29.966Z,7.90
2019-03-23T02:42:58.343Z,7.90
2019-03-23T02:45:26.729Z,7.90
2019-03-23T02:47:56.029Z,7.90
2019-03-23T02:50:24.417Z,7.90
2019-03-23T02:52:52.799Z,7.90
2019-03-23T02:55:21.179Z,7.90
2019-03-23T02:57:49.568Z,7.90
2019-03-23T03:00:17.995Z,7.90
2019-03-23T03:02:46.424Z,7.90
2019-03-23T03:05:14.978Z,8.00
2019-03-23T03:07:44.057Z,8.00
2019-03-23T03:10:14.835Z,8.00
2019-03-23T03:12:43.241Z,8.00
2019-03-23T03:15:11.658Z,8.00
2019-03-23T03:17:40.055Z,8.00
2019-03-23T03:20:09.316Z,8.00
2019-03-23T03:22:37.681Z,8.00
2019-03-23T03:25:07.015Z,8.00
2019-03-23T03:27:35.909Z,8.10
2019-03-23T03:30:05.862Z,8.00
2019-03-23T03:32:34.240Z,8.00
2019-03-23T03:35:02.637Z,8.10
2019-03-23T03:37:31.007Z,8.00
2019-03-23T03:39:59.385Z,8.10
2019-03-23T03:42:27.838Z,8.10
2019-03-23T03:44:56.692Z,8.00
2019-03-23T03:47:25.103Z,8.10
2019-03-23T03:49:54.014Z,8.00
2019-03-23T03:52:22.387Z,8.00
2019-03-23T03:54:50.770Z,7.90
2019-03-23T03:57:19.084Z,7.90
2019-03-23T03:59:47.454Z,7.90
2019-03-23T04:02:15.891Z,7.90
2019-03-23T04:04:44.279Z,7.90
2019-03-23T04:07:12.653Z,7.90
2019-03-23T04:09:41.042Z,7.90
2019-03-23T04:12:09.407Z,7.90
2019-03-23T04:14:37.841Z,7.90
2019-03-23T04:17:06.207Z,8.00
2019-03-23T04:19:34.575Z,8.00
2019-03-23T04:22:03.035Z,8.00
2019-03-23T04:24:31.398Z,8.00
2019-03-23T04:27:01.429Z,8.00
2019-03-23T04:29:29.939Z,8.00
2019-03-23T04:31:58.322Z,8.00
2019-03-23T04:34:26.706Z,8.00
2019-03-23T04:36:55.157Z,8.00
2019-03-23T04:39:23.527Z,7.90
2019-03-23T04:41:51.889Z,7.90
2019-03-23T04:44:20.399Z,7.90
2019-03-23T04:46:48.739Z,7.80
2019-03-23T04:49:17.103Z,7.80
2019-03-23T04:51:45.497Z,7.70
2019-03-23T04:54:13.862Z,7.70
2019-03-23T04:56:42.249Z,7.70
2019-03-23T04:59:10.656Z,7.60
2019-03-23T05:01:39.030Z,7.60
2019-03-23T05:04:07.442Z,7.60
2019-03-23T05:06:35.804Z,7.60
2019-03-23T05:09:05.714Z,7.60
2019-03-23T05:11:34.113Z,7.60
2019-03-23T05:14:02.506Z,7.60
2019-03-23T05:16:30.916Z,7.60
2019-03-23T05:18:59.280Z,7.60
2019-03-23T05:21:27.608Z,7.50
2019-03-23T05:23:55.976Z,7.60
2019-03-23T05:26:24.924Z,7.50
2019-03-23T05:28:53.324Z,7.50
2019-03-23T05:31:21.689Z,7.50
2019-03-23T05:33:50.086Z,7.50
2019-03-23T05:36:18.533Z,7.40
2019-03-23T05:38:46.913Z,7.50
2019-03-23T05:41:15.298Z,7.40
2019-03-23T05:43:43.747Z,7.40
2019-03-23T05:46:12.189Z,7.40
2019-03-23T05:48:40.556Z,7.40
2019-03-23T05:51:08.945Z,7.40
2019-03-23T05:53:37.361Z,7.40
2019-03-23T05:56:05.675Z,7.30
2019-03-23T05:58:34.057Z,7.20
2019-03-23T06:01:02.433Z,7.20
2019-03-23T06:03:30.864Z,7.20
2019-03-23T06:05:59.946Z,7.20
2019-03-23T06:08:28.326Z,7.20
2019-03-23T06:10:56.703Z,7.20
2019-03-23T06:13:25.164Z,7.20
2019-03-23T06:15:53.526Z,7.20
2019-03-23T06:18:21.838Z,7.20
2019-03-23T06:20:50.302Z,7.20
2019-03-23T06:23:18.716Z,7.20
2019-03-23T06:25:47.015Z,7.20
2019-03-23T06:28:15.403Z,7.20
2019-03-23T06:30:43.789Z,7.30
2019-03-23T06:33:12.156Z,7.30
2019-03-23T06:35:40.625Z,7.40
2019-03-23T06:38:09.082Z,7.40
2019-03-23T06:40:37.457Z,7.40
2019-03-23T06:43:05.861Z,7.40
2019-03-23T06:45:35.161Z,7.40
2019-03-23T06:48:03.556Z,7.40
2019-03-23T06:50:31.935Z,7.40
2019-03-23T06:53:00.333Z,7.30
2019-03-23T06:55:28.733Z,7.30
2019-03-23T06:57:57.030Z,7.30
2019-03-23T07:00:25.455Z,7.30
2019-03-23T07:02:53.922Z,7.30
2019-03-23T07:05:22.359Z,7.20
2019-03-23T07:07:50.754Z,7.20
2019-03-23T07:10:19.190Z,7.30
2019-03-23T07:12:47.606Z,7.20
2019-03-23T07:15:20.254Z,7.20
2019-03-23T07:17:46.032Z,7.20
2019-03-23T07:20:14.777Z,7.30
2019-03-23T07:22:43.154Z,7.30
2019-03-23T07:25:11.769Z,7.30
2019-03-23T07:27:40.133Z,7.30
2019-03-23T07:30:19.119Z,7.30
2019-03-23T07:32:47.477Z,7.40
2019-03-23T07:35:15.849Z,7.40
2019-03-23T07:37:44.241Z,7.40
2019-03-23T07:40:12.781Z,7.50
2019-03-23T07:42:41.240Z,7.60
2019-03-23T07:45:11.166Z,7.70
2019-03-23T07:47:39.533Z,7.80
2019-03-23T07:50:09.488Z,7.80
2019-03-23T07:52:38.133Z,7.90
2019-03-23T07:55:13.545Z,8.10
2019-03-23T07:57:42.158Z,8.30
2019-03-23T08:00:12.787Z,8.30
2019-03-23T08:02:41.152Z,8.50
2019-03-23T08:05:09.554Z,8.60
2019-03-23T08:07:37.940Z,8.70
2019-03-23T08:10:06.984Z,8.70
2019-03-23T08:12:35.396Z,8.80
2019-03-23T08:15:07.477Z,9.00
2019-03-23T08:17:35.806Z,9.00
2019-03-23T08:20:06.710Z,8.70
2019-03-23T08:22:35.147Z,8.70
2019-03-23T08:25:04.664Z,8.70
2019-03-23T08:27:33.033Z,8.80
2019-03-23T08:30:01.413Z,9.10
2019-03-23T08:32:29.797Z,8.90
2019-03-23T08:34:58.194Z,8.80
2019-03-23T08:37:26.609Z,8.80
2019-03-23T08:39:54.920Z,8.90
2019-03-23T08:42:23.997Z,8.90
2019-03-23T08:44:52.317Z,9.00
2019-03-23T08:47:20.642Z,9.00
2019-03-23T08:49:49.110Z,9.20
2019-03-23T08:52:17.470Z,9.20
2019-03-23T08:54:45.858Z,9.20
2019-03-23T08:57:14.242Z,9.40
2019-03-23T08:59:42.634Z,9.50
2019-03-23T09:02:10.999Z,9.60
2019-03-23T09:04:39.385Z,9.60
2019-03-23T09:07:07.813Z,9.80
2019-03-23T09:09:36.239Z,9.70
2019-03-23T09:12:04.609Z,9.60
2019-03-23T09:14:32.921Z,9.40
2019-03-23T09:17:01.269Z,9.40
2019-03-23T09:19:29.643Z,9.30
2019-03-23T09:21:58.099Z,9.30
2019-03-23T09:24:26.477Z,9.20
2019-03-23T09:26:54.778Z,9.40
2019-03-23T09:29:23.389Z,9.40
2019-03-23T09:31:51.754Z,9.50
2019-03-23T09:34:20.211Z,9.70
2019-03-23T09:36:48.678Z,9.80
2019-03-23T09:39:17.074Z,9.80
2019-03-23T09:41:45.513Z,9.60
2019-03-23T09:44:13.806Z,9.20
2019-03-23T09:46:42.118Z,9.30
2019-03-23T09:49:10.482Z,9.50
2019-03-23T09:51:38.788Z,9.40
2019-03-23T09:54:07.087Z,9.50
2019-03-23T09:56:35.456Z,9.80
2019-03-23T09:59:03.829Z,10.00
2019-03-23T10:01:32.147Z,10.20
2019-03-23T10:04:00.544Z,10.00
2019-03-23T10:06:28.932Z,10.10
2019-03-23T10:08:57.341Z,10.20
2019-03-23T10:11:25.699Z,10.20
2019-03-23T10:13:54.109Z,10.40
2019-03-23T10:16:22.561Z,10.30
2019-03-23T10:18:50.979Z,10.10
2019-03-23T10:21:19.360Z,9.90
2019-03-23T10:23:47.721Z,9.90
2019-03-23T10:26:16.113Z,10.00
2019-03-23T10:28:44.498Z,10.10
2019-03-23T10:31:12.867Z,9.90
2019-03-23T10:33:42.544Z,10.10
2019-03-23T10:36:12.292Z,10.20
2019-03-23T10:38:40.789Z,10.20
2019-03-23T10:41:10.188Z,10.30
2019-03-23T10:43:39.101Z,10.90
2019-03-23T10:46:07.550Z,11.60
2019-03-23T10:48:35.982Z,12.40
2019-03-23T10:51:04.398Z,12.00
2019-03-23T10:53:32.694Z,12.00
2019-03-23T10:56:01.081Z,12.60
2019-03-23T10:58:29.466Z,12.90
2019-03-23T11:00:57.905Z,12.90
2019-03-23T11:03:26.537Z,12.80
2019-03-23T11:05:54.851Z,12.60
2019-03-23T11:08:23.389Z,13.50
2019-03-23T11:10:51.696Z,13.20
2019-03-23T11:13:20.101Z,13.20
2019-03-23T11:15:48.401Z,13.20
2019-03-23T11:18:16.813Z,13.40
2019-03-23T11:20:45.991Z,12.70
2019-03-23T11:23:16.009Z,12.90
2019-03-23T11:25:44.383Z,12.80
2019-03-23T11:28:12.773Z,12.40
2019-03-23T11:30:41.112Z,13.30
2019-03-23T11:33:09.468Z,13.30
2019-03-23T11:35:37.832Z,13.20
2019-03-23T11:38:06.840Z,12.70
2019-03-23T11:40:35.207Z,12.60
2019-03-23T11:43:03.586Z,12.70
2019-03-23T11:45:31.892Z,12.50
2019-03-23T11:48:00.195Z,12.90
2019-03-23T11:50:28.606Z,13.00
2019-03-23T11:52:57.068Z,13.00
2019-03-23T11:55:25.446Z,13.10
2019-03-23T11:57:53.884Z,13.00
2019-03-23T12:00:23.113Z,13.30
2019-03-23T12:02:51.519Z,14.40
2019-03-23T12:05:19.965Z,13.50
2019-03-23T12:07:48.363Z,13.80
2019-03-23T12:10:16.729Z,13.60
2019-03-23T12:12:45.120Z,13.40
2019-03-23T12:15:13.510Z,13.80
2019-03-23T12:17:41.909Z,13.70
2019-03-23T12:20:10.617Z,13.60
2019-03-23T12:22:39.055Z,13.70
2019-03-23T12:25:07.387Z,13.80
2019-03-23T12:27:35.775Z,13.10
2019-03-23T12:30:07.636Z,13.20
2019-03-23T12:32:36.091Z,13.10
2019-03-23T12:35:07.099Z,12.40
2019-03-23T12:37:35.560Z,13.10
2019-03-23T12:40:05.766Z,13.20
2019-03-23T12:42:34.138Z,13.20
2019-03-23T12:45:03.470Z,13.50
2019-03-23T12:47:31.858Z,13.50
2019-03-23T12:50:00.338Z,13.60
2019-03-23T12:52:28.722Z,13.60
2019-03-23T12:54:59.234Z,13.80
2019-03-23T12:57:27.592Z,14.00
2019-03-23T12:59:56.161Z,14.60
2019-03-23T13:02:24.591Z,14.40
2019-03-23T13:04:52.945Z,14.00
2019-03-23T13:07:22.159Z,13.50
2019-03-23T13:09:50.481Z,13.40
2019-03-23T13:12:20.669Z,13.70
2019-03-23T13:14:48.968Z,13.90
2019-03-23T13:17:17.330Z,13.70
2019-03-23T13:19:45.769Z,13.90
2019-03-23T13:22:14.119Z,14.20
2019-03-23T13:24:42.481Z,13.70
2019-03-23T13:27:10.854Z,14.20
2019-03-23T13:29:39.218Z,13.70
2019-03-23T13:32:07.594Z,13.80
2019-03-23T13:34:36.018Z,13.90
2019-03-23T13:37:04.312Z,13.60
2019-03-23T13:39:32.687Z,14.00
2019-03-23T13:42:01.132Z,13.50
2019-03-23T13:44:29.497Z,13.20
2019-03-23T13:46:58.037Z,13.70
2019-03-23T13:49:26.494Z,13.70
2019-03-23T13:51:54.865Z,13.40
2019-03-23T13:54:23.183Z,13.60
2019-03-23T13:56:51.553Z,14.10
2019-03-23T13:59:19.879Z,14.20
2019-03-23T14:01:48.265Z,14.10
2019-03-23T14:04:16.655Z,13.30
2019-03-23T14:06:45.061Z,13.40
2019-03-23T14:09:13.429Z,13.10
2019-03-23T14:11:41.845Z,12.80
2019-03-23T14:14:10.212Z,13.20
2019-03-23T14:16:38.577Z,13.50
2019-03-23T14:19:06.966Z,13.30
2019-03-23T14:21:35.329Z,13.00
2019-03-23T14:24:03.659Z,13.40
2019-03-23T14:26:32.055Z,13.20
2019-03-23T14:29:00.442Z,13.40
2019-03-23T14:31:28.740Z,12.90
2019-03-23T14:33:57.200Z,12.80
2019-03-23T14:36:25.598Z,13.60
2019-03-23T14:38:53.958Z,13.20
2019-03-23T14:41:22.340Z,13.00
2019-03-23T14:43:51.086Z,12.80
2019-03-23T14:46:19.387Z,12.40
2019-03-23T14:48:47.749Z,12.50
2019-03-23T14:51:16.143Z,12.80
2019-03-23T14:53:44.528Z,12.60
2019-03-23T14:56:12.894Z,12.80
2019-03-23T14:58:41.350Z,13.40
2019-03-23T15:01:09.956Z,12.50
2019-03-23T15:03:38.306Z,12.50
2019-03-23T15:06:06.841Z,12.60
2019-03-23T15:08:35.219Z,12.40
2019-03-23T15:11:03.623Z,12.20
2019-03-23T15:13:32.105Z,12.00
2019-03-23T15:16:00.409Z,11.90
2019-03-23T15:18:28.985Z,11.60
2019-03-23T15:20:57.393Z,12.00
2019-03-23T15:23:25.875Z,11.40
2019-03-23T15:25:54.286Z,11.40
2019-03-23T15:28:22.690Z,11.40
2019-03-23T15:30:53.008Z,11.20
2019-03-23T15:33:21.278Z,10.70
2019-03-23T15:35:49.718Z,10.70
2019-03-23T15:38:18.110Z,10.90
2019-03-23T15:40:47.084Z,10.80
2019-03-23T15:43:15.377Z,10.90
2019-03-23T15:45:43.847Z,11.00
2019-03-23T15:48:12.229Z,10.90
2019-03-23T15:50:40.658Z,11.00
2019-03-23T15:53:09.001Z,11.00
2019-03-23T15:55:37.386Z,10.90
2019-03-23T15:58:05.809Z,11.10
2019-03-23T16:00:34.193Z,10.60
2019-03-23T16:03:03.064Z,10.00
2019-03-23T16:05:31.465Z,9.40
2019-03-23T16:07:59.858Z,9.50
2019-03-23T16:10:30.016Z,9.90
2019-03-23T16:12:58.436Z,9.40
2019-03-23T16:15:26.819Z,8.90
2019-03-23T16:17:56.445Z,8.90
2019-03-23T16:35:16.391Z,8.40
2019-03-23T16:37:44.761Z,8.20
2019-03-23T16:40:13.168Z,8.20
2019-03-23T16:42:45.492Z,8.40
2019-03-23T16:45:12.256Z,8.10
2019-03-23T16:47:40.675Z,8.00
2019-03-23T16:52:37.973Z,7.30
2019-03-23T16:55:10.345Z,7.40
2019-03-23T17:29:50.706Z,6.30
2019-03-23T17:49:36.469Z,6.00
2019-03-23T18:48:55.555Z,5.20
2019-03-23T18:58:48.573Z,5.10
2019-03-23T19:18:34.961Z,5.00
2019-03-23T19:48:15.963Z,4.80
2019-03-23T20:03:05.420Z,4.70
2019-03-23T20:45:06.982Z,4.50
2019-03-23T20:57:36.997Z,4.50
2019-03-23T20:59:58.247Z,4.50
2019-03-23T21:29:37.306Z,4.40
2019-03-23T21:54:21.430Z,4.30
2019-03-23T21:59:18.024Z,4.30
2019-03-23T22:21:31.937Z,4.20
2019-03-23T22:24:00.329Z,4.20
2019-03-23T22:31:25.231Z,4.10
2019-03-23T22:38:50.029Z,4.00
2019-03-23T22:56:07.535Z,3.90
2019-03-23T23:03:32.600Z,3.80
2019-03-23T23:06:00.992Z,3.80
2019-03-23T23:15:54.636Z,3.80
2019-03-23T23:33:12.177Z,3.40
2019-03-23T23:35:40.487Z,3.60
2019-03-23T23:38:09.150Z,3.60
2019-03-23T23:40:37.534Z,3.50
2019-03-23T23:45:34.055Z,3.50
2019-03-23T23:48:03.174Z,3.50
2019-03-23T23:52:59.793Z,3.50
2019-03-23T23:55:28.186Z,3.50
2019-03-23T23:57:56.600Z,3.50
